createdAt,value
2018-11-04T00:01:00.144Z,95823.28
2018-11-04T00:03:29.201Z,95817.39
2018-11-04T00:05:58.246Z,95812.89
2018-11-04T00:08:27.301Z,95813.20
2018-11-04T00:10:57.310Z,95811.02
2018-11-04T00:13:26.354Z,95806.86
2018-11-04T00:15:55.399Z,95810.44
2018-11-04T00:18:25.565Z,95803.08
2018-11-04T00:20:54.617Z,95798.42
2018-11-04T00:23:23.665Z,95792.61
2018-11-04T00:25:53.633Z,95793.73
2018-11-04T00:28:22.681Z,95794.94
2018-11-04T00:30:51.729Z,95798.50
2018-11-04T00:33:20.818Z,95790.73
2018-11-04T00:38:29.672Z,95784.02
2018-11-04T00:41:01.754Z,95784.44
2018-11-04T00:43:30.894Z,95786.16
2018-11-04T00:45:59.944Z,95781.25
2018-11-04T00:48:29.167Z,95782.77
2018-11-04T00:50:58.143Z,95784.70
2018-11-04T00:53:27.199Z,95786.63
2018-11-04T00:55:56.248Z,95784.70
2018-11-04T00:58:25.301Z,95786.95
2018-11-04T01:00:56.437Z,95778.68
2018-11-04T01:03:25.488Z,95771.71
2018-11-04T01:05:54.533Z,95774.11
2018-11-04T01:08:23.587Z,95770.48
2018-11-04T01:10:52.671Z,95763.42
2018-11-04T01:13:21.734Z,95762.14
2018-11-04T01:15:50.773Z,95748.45
2018-11-04T01:18:19.838Z,95750.66
2018-11-04T01:20:48.881Z,95752.16
2018-11-04T01:23:17.945Z,95749.03
2018-11-04T01:25:47.002Z,95748.06
2018-11-04T01:28:17.027Z,95746.20
2018-11-04T01:30:47.007Z,95744.69
2018-11-04T01:33:17.044Z,95740.53
2018-11-04T01:35:46.091Z,95739.42
2018-11-04T01:38:15.146Z,95737.22
2018-11-04T01:40:44.199Z,95732.83
2018-11-04T01:43:17.854Z,95728.02
2018-11-04T01:45:46.936Z,95722.92
2018-11-04T01:48:16.076Z,95719.52
2018-11-04T01:50:45.108Z,95715.98
2018-11-04T01:53:14.153Z,95718.99
2018-11-04T01:55:44.325Z,95713.34
2018-11-04T01:58:13.358Z,95705.30
2018-11-04T02:00:42.417Z,95698.96
2018-11-04T02:03:11.484Z,95697.88
2018-11-04T02:05:40.553Z,95699.98
2018-11-04T02:08:09.600Z,95698.88
2018-11-04T02:10:39.569Z,95694.23
2018-11-04T02:13:08.623Z,95689.14
2018-11-04T02:15:37.680Z,95677.56
2018-11-04T02:18:06.760Z,95671.31
2018-11-04T02:20:35.952Z,95663.87
2018-11-04T02:23:04.989Z,95651.99
2018-11-04T02:25:41.473Z,95661.18
2018-11-04T02:28:10.505Z,95660.69
2018-11-04T02:30:39.560Z,95664.66
2018-11-04T02:33:08.619Z,95664.52
2018-11-04T02:35:37.652Z,95667.39
2018-11-04T02:38:06.702Z,95661.75
2018-11-04T02:43:11.545Z,95663.32
2018-11-04T02:45:44.869Z,95666.70
2018-11-04T02:48:13.945Z,95665.39
2018-11-04T02:50:42.988Z,95663.38
2018-11-04T02:53:12.990Z,95673.28
2018-11-04T02:55:42.037Z,95673.75
2018-11-04T02:58:11.089Z,95670.19
2018-11-04T03:00:43.705Z,95675.22
2018-11-04T03:03:12.756Z,95678.17
2018-11-04T03:05:41.806Z,95672.35
2018-11-04T03:08:10.861Z,95671.58
2018-11-04T03:14:09.653Z,95673.73
2018-11-04T03:16:38.701Z,95671.41
2018-11-04T03:19:07.756Z,95669.73
2018-11-04T03:21:36.799Z,95671.11
2018-11-04T03:24:06.778Z,95663.63
2018-11-04T03:26:35.819Z,95654.78
2018-11-04T03:29:04.914Z,95660.06
2018-11-04T03:31:33.978Z,95664.27
2018-11-04T03:34:03.008Z,95653.41
2018-11-04T03:36:32.065Z,95648.08
2018-11-04T03:39:01.111Z,95648.76
2018-11-04T03:41:30.155Z,95651.75
2018-11-04T03:43:59.201Z,95645.95
2018-11-04T03:46:28.255Z,95649.37
2018-11-04T03:49:01.839Z,95647.81
2018-11-04T03:51:31.586Z,95642.56
2018-11-04T03:54:00.617Z,95624.91
2018-11-04T03:56:30.592Z,95627.38
2018-11-04T03:58:59.671Z,95631.84
2018-11-04T04:04:04.546Z,95630.55
2018-11-04T04:06:33.566Z,95622.63
2018-11-04T04:11:38.373Z,95624.55
2018-11-04T04:14:07.403Z,95632.29
2018-11-04T04:16:36.480Z,95618.66
2018-11-04T04:19:05.590Z,95612.78
2018-11-04T04:21:34.637Z,95610.34
2018-11-04T04:24:03.687Z,95604.21
2018-11-04T04:26:32.729Z,95609.10
2018-11-04T04:29:02.798Z,95608.99
2018-11-04T04:31:31.861Z,95597.84
2018-11-04T04:34:00.919Z,95587.53
2018-11-04T04:36:30.933Z,95583.61
2018-11-04T04:39:00.010Z,95594.00
2018-11-04T04:41:29.091Z,95582.57
2018-11-04T04:43:58.177Z,95591.06
2018-11-04T04:46:27.224Z,95585.17
2018-11-04T04:48:56.299Z,95582.30
2018-11-04T04:51:25.340Z,95579.72
2018-11-04T04:53:54.388Z,95573.56
2018-11-04T04:58:59.200Z,95560.51
2018-11-04T05:01:28.259Z,95556.22
2018-11-04T05:03:57.333Z,95557.50
2018-11-04T05:06:26.433Z,95568.43
2018-11-04T05:08:55.491Z,95571.67
2018-11-04T05:11:24.524Z,95572.83
2018-11-04T05:13:53.629Z,95571.60
2018-11-04T05:16:22.694Z,95568.55
2018-11-04T05:18:51.744Z,95567.58
2018-11-04T05:23:56.595Z,95557.64
2018-11-04T05:26:25.637Z,95554.28
2018-11-04T05:28:54.708Z,95559.28
2018-11-04T05:31:23.743Z,95561.38
2018-11-04T05:36:28.502Z,95576.31
2018-11-04T05:38:57.556Z,95568.48
2018-11-04T05:41:26.601Z,95572.47
2018-11-04T05:43:55.641Z,95571.34
2018-11-04T05:46:24.700Z,95570.10
2018-11-04T05:48:53.785Z,95565.87
2018-11-04T05:51:23.781Z,95563.13
2018-11-04T05:53:52.837Z,95566.53
2018-11-04T05:56:37.533Z,95560.41
2018-11-04T05:59:07.350Z,95568.02
2018-11-04T06:01:36.410Z,95574.26
2018-11-04T06:04:05.461Z,95570.53
2018-11-04T06:06:34.515Z,95566.55
2018-11-04T06:11:39.332Z,95565.11
2018-11-04T06:14:08.447Z,95568.51
2018-11-04T06:16:37.541Z,95567.12
2018-11-04T06:19:06.597Z,95560.38
2018-11-04T06:21:35.716Z,95559.42
2018-11-04T06:24:04.790Z,95555.70
2018-11-04T06:26:34.822Z,95551.36
2018-11-04T06:29:03.869Z,95557.55
2018-11-04T06:31:32.908Z,95561.84
2018-11-04T06:34:01.962Z,95563.89
2018-11-04T06:36:32.942Z,95567.94
2018-11-04T06:39:03.023Z,95563.08
2018-11-04T06:41:32.154Z,95564.42
2018-11-04T06:44:01.177Z,95561.76
2018-11-04T06:46:30.253Z,95568.45
2018-11-04T06:48:59.297Z,95572.53
2018-11-04T06:54:04.057Z,95573.94
2018-11-04T06:56:33.133Z,95569.47
2018-11-04T06:59:02.251Z,95574.06
2018-11-04T07:01:31.311Z,95575.60
2018-11-04T07:04:00.373Z,95589.01
2018-11-04T07:06:29.483Z,95580.80
2018-11-04T07:08:58.526Z,95578.33
2018-11-04T07:11:27.575Z,95583.01
2018-11-04T07:13:56.637Z,95591.11
2018-11-04T07:16:25.741Z,95584.12
2018-11-04T07:18:56.760Z,95580.49
2018-11-04T07:21:25.813Z,95577.92
2018-11-04T07:23:54.863Z,95574.78
2018-11-04T07:26:23.937Z,95572.74
2018-11-04T07:28:52.968Z,95576.22
2018-11-04T07:31:25.447Z,95572.08
2018-11-04T07:33:54.597Z,95571.92
2018-11-04T07:36:23.634Z,95576.38
2018-11-04T07:38:53.804Z,95578.95
2018-11-04T07:41:22.841Z,95581.37
2018-11-04T07:43:51.906Z,95580.50
2018-11-04T07:46:21.238Z,95582.51
2018-11-04T07:48:50.304Z,95581.67
2018-11-04T07:51:19.399Z,95581.23
2018-11-04T07:53:48.392Z,95577.98
2018-11-04T07:56:18.365Z,95587.91
2018-11-04T07:58:47.416Z,95584.27
2018-11-04T08:01:16.458Z,95573.63
2018-11-04T08:03:45.496Z,95572.47
2018-11-04T08:06:14.557Z,95564.14
2018-11-04T08:08:44.603Z,95556.35
2018-11-04T08:11:14.610Z,95555.41
2018-11-04T08:13:43.775Z,95560.64
2018-11-04T08:16:12.728Z,95565.89
2018-11-04T08:18:45.389Z,95566.02
2018-11-04T08:21:14.510Z,95561.70
2018-11-04T08:23:47.046Z,95556.78
2018-11-04T08:26:17.767Z,95564.17
2018-11-04T08:28:46.823Z,95562.34
2018-11-04T08:31:16.811Z,95562.11
2018-11-04T08:33:45.861Z,95555.49
2018-11-04T08:36:14.920Z,95555.54
2018-11-04T08:38:43.966Z,95548.33
2018-11-04T08:41:13.040Z,95549.10
2018-11-04T08:43:44.069Z,95551.03
2018-11-04T08:46:13.096Z,95562.64
2018-11-04T08:48:42.137Z,95561.47
2018-11-04T08:51:11.177Z,95548.14
2018-11-04T08:53:40.276Z,95535.05
2018-11-04T08:56:09.327Z,95545.34
2018-11-04T09:01:14.230Z,95554.25
2018-11-04T09:03:43.256Z,95541.00
2018-11-04T09:06:12.298Z,95530.00
2018-11-04T09:08:41.347Z,95526.73
2018-11-04T09:11:12.358Z,95532.23
2018-11-04T09:13:41.409Z,95535.08
2018-11-04T09:21:21.985Z,95517.13
2018-11-04T09:23:51.045Z,95517.95
2018-11-04T09:26:20.093Z,95512.66
2018-11-04T09:28:53.134Z,95506.34
2018-11-04T09:31:22.198Z,95503.40
2018-11-04T09:33:51.245Z,95500.84
2018-11-04T09:36:20.440Z,95493.83
2018-11-04T09:38:49.366Z,95496.83
2018-11-04T09:41:18.414Z,95496.14
2018-11-04T09:43:47.600Z,95496.41
2018-11-04T09:46:17.655Z,95489.54
2018-11-04T09:48:46.704Z,95493.94
2018-11-04T09:51:15.770Z,95494.96
2018-11-04T09:53:44.877Z,95498.69
2018-11-04T09:58:49.813Z,95497.15
2018-11-04T10:01:20.838Z,95499.99
2018-11-04T10:03:49.902Z,95496.42
2018-11-04T10:06:18.997Z,95492.90
2018-11-04T10:08:48.105Z,95494.42
2018-11-04T10:11:17.224Z,95493.56
2018-11-04T10:13:46.289Z,95492.87
2018-11-04T10:16:16.377Z,95489.91
2018-11-04T10:18:47.347Z,95478.83
2018-11-04T10:23:52.398Z,95474.25
2018-11-04T10:26:21.466Z,95461.88
2018-11-04T10:28:50.513Z,95451.79
2018-11-04T10:31:19.743Z,95443.20
2018-11-04T10:33:49.068Z,95435.03
2018-11-04T10:36:19.344Z,95432.42
2018-11-04T10:38:48.481Z,95434.38
2018-11-04T10:41:17.691Z,95444.73
2018-11-04T10:43:46.880Z,95440.98
2018-11-04T10:46:15.943Z,95434.70
2018-11-04T10:48:46.008Z,95429.15
2018-11-04T10:51:15.215Z,95427.41
2018-11-04T10:53:44.791Z,95428.48
2018-11-04T10:58:53.879Z,95441.73
2018-11-04T11:01:24.974Z,95424.95
2018-11-04T11:03:55.673Z,95424.83
2018-11-04T11:06:24.712Z,95417.66
2018-11-04T11:08:54.058Z,95420.23
2018-11-04T11:11:23.161Z,95420.80
2018-11-04T11:13:52.531Z,95417.50
2018-11-04T11:19:00.309Z,95401.02
2018-11-04T11:21:29.418Z,95397.91
2018-11-04T11:26:34.195Z,95404.57
2018-11-04T11:29:03.256Z,95403.84
2018-11-04T11:31:32.404Z,95396.47
2018-11-04T11:34:01.464Z,95393.59
2018-11-04T11:37:25.613Z,95396.04
2018-11-04T11:39:54.791Z,95388.76
2018-11-04T11:42:24.313Z,95379.03
2018-11-04T11:44:53.468Z,95375.47
2018-11-04T11:47:22.527Z,95377.65
2018-11-04T11:49:52.889Z,95368.03
2018-11-04T11:52:22.010Z,95357.09
2018-11-04T11:54:51.027Z,95366.87
2018-11-04T11:57:23.643Z,95364.19
2018-11-04T11:59:52.769Z,95359.06
2018-11-04T12:02:22.810Z,95344.42
2018-11-04T12:04:54.233Z,95347.01
2018-11-04T12:07:23.381Z,95344.40
2018-11-04T12:09:52.467Z,95340.33
2018-11-04T12:14:58.396Z,95331.33
2018-11-04T12:17:27.530Z,95323.91
2018-11-04T12:19:58.187Z,95317.64
2018-11-04T12:22:27.235Z,95327.02
2018-11-04T12:24:56.333Z,95324.36
2018-11-04T12:27:25.465Z,95332.16
2018-11-04T12:29:54.529Z,95330.67
2018-11-04T12:32:23.601Z,95316.06
2018-11-04T12:34:52.865Z,95306.77
2018-11-04T12:37:21.918Z,95304.44
2018-11-04T12:42:26.709Z,95301.29
2018-11-04T12:44:55.913Z,95295.31
2018-11-04T12:47:24.961Z,95298.01
2018-11-04T12:49:54.539Z,95294.56
2018-11-04T12:52:26.681Z,95287.98
2018-11-04T12:55:05.749Z,95278.48
2018-11-04T12:57:35.648Z,95275.73
2018-11-04T13:00:04.778Z,95280.73
2018-11-04T13:02:40.825Z,95279.52
2018-11-04T13:05:09.874Z,95269.44
2018-11-04T13:07:39.035Z,95265.09
2018-11-04T13:10:08.120Z,95260.09
2018-11-04T13:12:37.128Z,95256.59
2018-11-04T13:15:06.205Z,95255.56
2018-11-04T13:17:35.262Z,95258.81
2018-11-04T13:22:40.069Z,95260.53
2018-11-04T13:25:09.136Z,95255.63
2018-11-04T13:27:39.407Z,95253.19
2018-11-04T13:30:08.507Z,95262.61
2018-11-04T13:32:37.553Z,95273.92
2018-11-04T13:37:43.323Z,95251.02
2018-11-04T13:40:12.393Z,95248.62
2018-11-04T13:42:41.504Z,95253.09
2018-11-04T13:45:10.663Z,95253.24
2018-11-04T13:47:39.772Z,95244.61
2018-11-04T13:50:09.785Z,95239.47
2018-11-04T13:52:38.868Z,95244.62
2018-11-04T13:55:07.953Z,95233.19
2018-11-04T13:57:37.015Z,95234.29
2018-11-04T14:00:06.142Z,95230.59
2018-11-04T14:02:36.354Z,95230.27
2018-11-04T14:05:06.183Z,95228.44
2018-11-04T14:07:38.940Z,95236.05
2018-11-04T14:10:07.991Z,95240.66
2018-11-04T14:12:37.097Z,95239.91
2018-11-04T14:15:07.157Z,95239.23
2018-11-04T14:17:39.010Z,95249.69
2018-11-04T14:22:49.180Z,95241.34
2018-11-04T14:25:18.228Z,95234.39
2018-11-04T14:27:47.353Z,95221.66
2018-11-04T14:32:52.185Z,95219.42
2018-11-04T14:35:22.244Z,95215.30
2018-11-04T14:40:27.040Z,95207.16
2018-11-04T14:42:56.137Z,95204.47
2018-11-04T14:45:27.176Z,95203.84
2018-11-04T14:47:58.605Z,95203.73
2018-11-04T14:50:27.676Z,95190.56
2018-11-04T14:52:58.830Z,95188.77
2018-11-04T14:55:34.516Z,95184.50
2018-11-04T14:58:03.668Z,95178.20
2018-11-04T15:00:32.895Z,95177.20
2018-11-04T15:03:02.943Z,95184.37
2018-11-04T15:08:08.600Z,95176.64
2018-11-04T15:10:37.667Z,95180.93
2018-11-04T15:13:06.762Z,95174.83
2018-11-04T15:15:35.855Z,95171.56
2018-11-04T15:18:05.577Z,95172.75
2018-11-04T15:20:34.817Z,95167.00
2018-11-04T15:25:39.602Z,95164.11
2018-11-04T15:28:09.603Z,95173.48
2018-11-04T15:33:14.489Z,95162.75
2018-11-04T15:35:43.610Z,95166.38
2018-11-04T15:38:12.696Z,95171.73
2018-11-04T15:40:41.925Z,95173.49
2018-11-04T15:43:11.656Z,95176.84
2018-11-04T15:48:16.438Z,95177.89
2018-11-04T15:50:46.149Z,95180.16
2018-11-04T15:53:15.434Z,95181.34
2018-11-04T15:58:20.194Z,95177.52
2018-11-04T16:00:49.283Z,95174.50
2018-11-04T16:03:18.362Z,95173.55
2018-11-04T16:05:47.446Z,95173.72
2018-11-04T16:13:31.077Z,95171.78
2018-11-04T16:16:00.758Z,95171.14
2018-11-04T16:18:30.820Z,95176.11
2018-11-04T16:20:59.862Z,95174.55
2018-11-04T16:23:28.942Z,95165.69
2018-11-04T16:25:58.006Z,95163.70
2018-11-04T16:28:35.712Z,95163.45
2018-11-04T16:31:05.241Z,95165.06
2018-11-04T16:33:34.303Z,95168.73
2018-11-04T16:36:03.384Z,95173.48
2018-11-04T16:38:32.432Z,95174.74
2018-11-04T16:41:01.508Z,95169.77
2018-11-04T16:46:10.828Z,95168.55
2018-11-04T16:51:15.890Z,95169.31
2018-11-04T16:53:49.621Z,95163.44
2018-11-04T16:56:19.099Z,95161.53
2018-11-04T17:01:23.907Z,95158.05
2018-11-04T17:03:52.978Z,95157.69
2018-11-04T17:06:23.054Z,95159.38
2018-11-04T17:08:52.056Z,95151.03
2018-11-04T17:11:22.116Z,95151.20
2018-11-04T17:13:51.104Z,95155.80
2018-11-04T17:16:20.178Z,95149.14
2018-11-04T17:18:49.263Z,95151.77
2018-11-04T17:21:18.321Z,95148.48
2018-11-04T17:23:47.411Z,95140.73
2018-11-04T17:26:16.473Z,95152.28
2018-11-04T17:28:45.584Z,95150.86
2018-11-04T17:31:14.616Z,95151.19
2018-11-04T17:33:43.686Z,95146.49
2018-11-04T17:36:12.867Z,95136.86
2018-11-04T17:41:17.652Z,95155.72
2018-11-04T17:43:46.759Z,95149.04
2018-11-04T17:46:15.844Z,95143.22
2018-11-04T17:48:44.897Z,95132.72
2018-11-04T17:51:13.949Z,95132.23
2018-11-04T17:53:43.163Z,95128.56
2018-11-04T17:56:12.316Z,95131.98
2018-11-04T17:58:42.346Z,95130.38
2018-11-04T18:01:11.405Z,95132.41
2018-11-04T18:03:40.471Z,95141.06
2018-11-04T18:08:45.232Z,95147.30
2018-11-04T18:11:14.278Z,95146.56
2018-11-04T18:13:43.387Z,95146.30
2018-11-04T18:16:12.388Z,95150.23
2018-11-04T18:18:41.445Z,95146.55
2018-11-04T18:21:10.518Z,95154.97
2018-11-04T18:26:15.289Z,95165.32
2018-11-04T18:28:44.394Z,95157.73
2018-11-04T18:31:13.455Z,95165.09
2018-11-04T18:33:42.529Z,95146.52
2018-11-04T18:36:11.595Z,95153.17
2018-11-04T18:38:40.652Z,95141.94
2018-11-04T18:41:09.709Z,95153.58
2018-11-04T18:43:38.770Z,95145.59
2018-11-04T18:48:43.531Z,95139.88
2018-11-04T18:51:12.592Z,95133.77
2018-11-04T18:53:41.652Z,95135.00
2018-11-04T18:56:10.718Z,95126.58
2018-11-04T18:58:39.775Z,95130.16
2018-11-04T19:01:08.980Z,95130.28
2018-11-04T19:03:38.073Z,95138.41
2018-11-04T19:06:07.155Z,95129.05
2018-11-04T19:08:36.237Z,95126.52
2018-11-04T19:11:06.438Z,95134.25
2018-11-04T19:16:11.174Z,95133.06
2018-11-04T19:18:40.448Z,95125.67
2018-11-04T19:21:09.522Z,95128.69
2018-11-04T19:23:38.574Z,95114.51
2018-11-04T19:26:07.644Z,95095.22
2018-11-04T19:28:37.645Z,95102.69
2018-11-04T19:31:07.747Z,95093.34
2018-11-04T19:33:36.713Z,95095.39
2018-11-04T19:38:41.470Z,95094.44
2018-11-04T19:41:11.621Z,95091.02
2018-11-04T19:43:44.403Z,95092.86
2018-11-04T19:46:16.806Z,95098.30
2018-11-04T19:48:46.668Z,95084.44
2018-11-04T19:53:51.329Z,95106.63
2018-11-04T19:56:20.420Z,95114.84
2018-11-04T19:58:51.526Z,95106.10
2018-11-04T20:01:20.528Z,95113.80
2018-11-04T20:03:49.577Z,95106.98
2018-11-04T20:06:18.634Z,95108.20
2018-11-04T20:08:48.841Z,95114.37
2018-11-04T20:11:17.918Z,95104.75
2018-11-04T20:16:32.670Z,95113.20
2018-11-04T20:19:01.785Z,95110.03
2018-11-04T20:21:30.785Z,95105.67
2018-11-04T20:26:35.657Z,95103.59
2018-11-04T20:29:04.711Z,95111.17
2018-11-04T20:31:33.776Z,95111.48
2018-11-04T20:34:02.981Z,95103.17
2018-11-04T20:36:31.948Z,95115.22
2018-11-04T20:39:00.994Z,95107.20
2018-11-04T20:41:30.088Z,95114.27
2018-11-04T20:46:34.875Z,95129.52
2018-11-04T20:51:59.687Z,95103.92
2018-11-04T20:54:28.676Z,95109.47
2018-11-04T21:04:58.957Z,95085.07
2018-11-04T21:07:28.028Z,95088.92
2018-11-04T21:09:57.201Z,95104.53
2018-11-04T21:12:26.136Z,95103.84
2018-11-04T21:14:55.199Z,95097.68
2018-11-04T21:17:24.388Z,95090.04
2018-11-04T21:19:53.442Z,95092.97
2018-11-04T21:22:22.501Z,95086.69
2018-11-04T21:24:51.850Z,95080.73
2018-11-04T21:27:21.706Z,95070.37
2018-11-04T21:29:50.860Z,95062.79
2018-11-04T21:32:19.851Z,95047.42
2018-11-04T21:34:48.907Z,95061.83
2018-11-04T21:37:18.105Z,95074.52
2018-11-04T21:39:47.154Z,95070.45
2018-11-04T21:42:27.731Z,95071.77
2018-11-04T21:45:03.127Z,95073.38
2018-11-04T21:47:32.416Z,95065.38
2018-11-04T21:50:01.517Z,95064.78
2018-11-04T21:52:30.607Z,95054.84
2018-11-04T21:54:59.681Z,95057.53
2018-11-04T21:57:28.731Z,95062.63
2018-11-04T21:59:58.728Z,95055.88
2018-11-04T22:02:27.989Z,95040.80
2018-11-04T22:04:56.853Z,95041.32
2018-11-04T22:07:25.902Z,95042.22
2018-11-04T22:09:54.962Z,95036.86
2018-11-04T22:12:24.061Z,95035.62
2018-11-04T22:14:53.261Z,95037.80
2018-11-04T22:19:58.028Z,95025.68
2018-11-04T22:22:27.061Z,95027.20
2018-11-04T22:24:56.105Z,95034.50
2018-11-04T22:30:00.871Z,95035.64
2018-11-04T22:32:29.913Z,95040.38
2018-11-04T22:34:58.967Z,95032.50
2018-11-04T22:37:28.010Z,95012.30
2018-11-04T22:39:57.077Z,95010.94
2018-11-04T22:42:26.274Z,95033.89
2018-11-04T22:44:55.262Z,95048.73
2018-11-04T22:47:24.543Z,95035.22
2018-11-04T22:49:55.740Z,95027.41
2018-11-04T22:52:24.793Z,95021.24
2018-11-04T22:54:53.847Z,95021.95
2018-11-04T22:57:23.632Z,95030.56
2018-11-04T22:59:52.787Z,95028.17
2018-11-04T23:02:21.835Z,95029.51
2018-11-04T23:04:50.952Z,95031.23
2018-11-04T23:09:55.910Z,94996.55
2018-11-04T23:12:24.940Z,95011.91
2018-11-04T23:17:31.134Z,95001.34
2018-11-04T23:20:00.183Z,94983.02
2018-11-04T23:22:29.343Z,94985.70
2018-11-04T23:24:59.337Z,95002.28
2018-11-04T23:27:28.417Z,94992.08
2018-11-04T23:29:57.472Z,94982.41
2018-11-04T23:35:02.230Z,94985.05
2018-11-04T23:37:31.365Z,94983.19
2018-11-04T23:40:00.382Z,94980.24
2018-11-04T23:42:29.465Z,94980.14
2018-11-04T23:44:58.531Z,94985.61
2018-11-04T23:47:27.579Z,94983.25
2018-11-04T23:49:57.601Z,94982.03
2018-11-04T23:52:26.657Z,94971.13
2018-11-04T23:54:57.651Z,94965.02
2018-11-04T23:57:26.704Z,94950.42
2018-11-04T23:59:55.753Z,94955.22
